createdAt,value
2022-10-05T00:00:24.379Z,9.10
2022-10-05T00:01:24.425Z,9.40
2022-10-05T00:02:24.368Z,7.20
2022-10-05T00:03:24.351Z,9.60
2022-10-05T00:04:24.358Z,10.00
2022-10-05T00:05:24.364Z,6.90
2022-10-05T00:06:24.333Z,10.30
2022-10-05T00:07:24.365Z,10.00
2022-10-05T00:08:24.295Z,8.00
2022-10-05T00:09:24.281Z,7.40
2022-10-05T00:10:24.285Z,9.70
2022-10-05T00:11:24.287Z,11.20
2022-10-05T00:12:24.271Z,10.30
2022-10-05T00:13:24.256Z,9.20
2022-10-05T00:14:24.236Z,10.70
2022-10-05T00:15:24.250Z,8.50
2022-10-05T00:16:24.312Z,8.40
2022-10-05T00:17:24.214Z,10.20
2022-10-05T00:18:24.198Z,7.80
2022-10-05T00:19:24.183Z,7.60
2022-10-05T00:20:24.195Z,7.50
2022-10-05T00:21:24.163Z,8.20
2022-10-05T00:22:24.163Z,7.60
2022-10-05T00:23:24.164Z,8.70
2022-10-05T00:24:24.136Z,10.60
2022-10-05T00:25:24.154Z,7.70
2022-10-05T00:26:24.115Z,7.90
2022-10-05T00:27:24.134Z,8.70
2022-10-05T00:28:24.146Z,9.40
2022-10-05T00:29:24.103Z,8.90
2022-10-05T00:30:24.092Z,7.70
2022-10-05T00:31:24.129Z,6.40
2022-10-05T00:32:24.072Z,8.50
2022-10-05T00:33:24.053Z,9.30
2022-10-05T00:34:24.042Z,7.50
2022-10-05T00:35:24.030Z,9.30
2022-10-05T00:36:24.025Z,7.30
2022-10-05T00:37:24.024Z,8.70
2022-10-05T00:38:24.006Z,8.30
2022-10-05T00:39:23.991Z,6.90
2022-10-05T00:40:23.994Z,9.60
2022-10-05T00:41:23.974Z,8.00
2022-10-05T00:42:23.974Z,8.60
2022-10-05T00:43:23.946Z,8.70
2022-10-05T00:44:23.943Z,6.30
2022-10-05T00:45:23.951Z,6.70
2022-10-05T00:46:23.982Z,8.50
2022-10-05T00:47:23.912Z,10.80
2022-10-05T00:48:23.911Z,7.20
2022-10-05T00:49:23.909Z,6.20
2022-10-05T00:50:23.874Z,9.00
2022-10-05T00:51:23.876Z,9.70
2022-10-05T00:52:23.891Z,8.60
2022-10-05T00:53:23.854Z,9.70
2022-10-05T00:54:23.855Z,10.00
2022-10-05T00:55:23.835Z,11.80
2022-10-05T00:56:23.826Z,10.20
2022-10-05T00:57:23.839Z,11.20
2022-10-05T00:58:23.806Z,12.90
2022-10-05T00:59:23.784Z,10.70
2022-10-05T01:00:24.796Z,8.10
2022-10-05T01:01:23.846Z,11.30
2022-10-05T01:02:23.849Z,10.40
2022-10-05T01:03:23.755Z,8.40
2022-10-05T01:04:23.742Z,12.70
2022-10-05T01:05:23.733Z,7.50
2022-10-05T01:06:23.737Z,7.90
2022-10-05T01:07:23.739Z,7.90
2022-10-05T01:08:24.701Z,10.00
2022-10-05T01:09:23.712Z,8.80
2022-10-05T01:10:23.693Z,7.90
2022-10-05T01:11:23.679Z,7.20
2022-10-05T01:12:23.688Z,8.60
2022-10-05T01:13:23.689Z,9.00
2022-10-05T01:14:23.660Z,8.70
2022-10-05T01:15:23.643Z,7.70
2022-10-05T01:16:23.683Z,8.90
2022-10-05T01:17:23.619Z,9.10
2022-10-05T01:18:23.628Z,7.90
2022-10-05T01:19:23.613Z,7.80
2022-10-05T01:20:23.605Z,9.30
2022-10-05T01:21:23.581Z,12.20
2022-10-05T01:22:23.573Z,9.00
2022-10-05T01:23:23.562Z,10.10
2022-10-05T01:24:23.562Z,10.00
2022-10-05T01:25:23.544Z,8.20
2022-10-05T01:26:23.554Z,8.20
2022-10-05T01:27:23.523Z,12.00
2022-10-05T01:28:23.692Z,10.40
2022-10-05T01:29:23.520Z,9.90
2022-10-05T01:30:23.490Z,10.10
2022-10-05T01:31:23.568Z,10.50
2022-10-05T01:32:23.503Z,13.50
2022-10-05T01:33:23.475Z,9.30
2022-10-05T01:34:23.450Z,12.00
2022-10-05T01:35:23.433Z,9.30
2022-10-05T01:36:23.452Z,7.60
2022-10-05T01:37:23.418Z,10.80
2022-10-05T01:38:23.414Z,8.80
2022-10-05T01:39:23.402Z,10.40
2022-10-05T01:40:23.387Z,6.50
2022-10-05T01:41:23.396Z,9.10
2022-10-05T01:42:23.395Z,8.00
2022-10-05T01:43:23.361Z,8.60
2022-10-05T01:44:23.348Z,7.90
2022-10-05T01:45:23.343Z,7.40
2022-10-05T01:46:23.374Z,7.90
2022-10-05T01:47:23.393Z,7.70
2022-10-05T01:48:23.312Z,8.50
2022-10-05T01:49:23.307Z,7.50
2022-10-05T01:50:23.288Z,7.50
2022-10-05T01:51:23.277Z,11.30
2022-10-05T01:52:23.294Z,8.90
2022-10-05T01:53:23.262Z,6.80
2022-10-05T01:54:23.248Z,10.10
2022-10-05T01:55:23.235Z,8.00
2022-10-05T01:56:23.233Z,6.50
2022-10-05T01:57:23.220Z,8.30
2022-10-05T01:58:23.240Z,8.20
2022-10-05T01:59:23.203Z,8.60
2022-10-05T02:00:23.192Z,7.00
2022-10-05T02:01:23.243Z,6.60
2022-10-05T02:02:23.230Z,8.30
2022-10-05T02:03:23.185Z,6.70
2022-10-05T02:04:43.582Z,7.20
2022-10-05T02:05:25.145Z,7.30
2022-10-05T02:06:23.145Z,8.40
2022-10-05T02:07:23.118Z,7.20
2022-10-05T02:08:23.116Z,8.00
2022-10-05T02:09:23.123Z,9.00
2022-10-05T02:10:23.089Z,7.50
2022-10-05T02:11:23.086Z,7.40
2022-10-05T02:12:23.073Z,7.20
2022-10-05T02:13:23.061Z,8.80
2022-10-05T02:14:23.071Z,7.00
2022-10-05T02:15:23.050Z,9.10
2022-10-05T02:16:23.103Z,7.20
2022-10-05T02:17:23.030Z,7.40
2022-10-05T02:18:23.038Z,5.70
2022-10-05T02:19:23.009Z,6.70
2022-10-05T02:20:23.013Z,8.10
2022-10-05T02:21:22.980Z,9.00
2022-10-05T02:22:54.887Z,10.90
2022-10-05T02:23:22.976Z,11.10
2022-10-05T02:24:22.955Z,11.00
2022-10-05T02:25:22.945Z,9.70
2022-10-05T02:26:22.938Z,12.20
2022-10-05T02:27:22.934Z,8.60
2022-10-05T02:28:22.975Z,11.50
2022-10-05T02:29:22.906Z,11.30
2022-10-05T02:30:22.895Z,8.90
2022-10-05T02:31:22.952Z,10.00
2022-10-05T02:32:22.880Z,9.60
2022-10-05T02:33:22.883Z,7.70
2022-10-05T02:34:22.851Z,7.50
2022-10-05T02:35:22.839Z,7.20
2022-10-05T02:36:22.837Z,8.00
2022-10-05T02:37:22.829Z,7.70
2022-10-05T02:38:22.833Z,8.90
2022-10-05T02:39:22.813Z,8.90
2022-10-05T02:40:22.809Z,8.60
2022-10-05T02:41:22.801Z,8.30
2022-10-05T02:42:22.790Z,9.90
2022-10-05T02:43:22.765Z,7.20
2022-10-05T02:44:22.778Z,12.30
2022-10-05T02:45:22.747Z,7.30
2022-10-05T02:46:22.803Z,7.30
2022-10-05T02:47:22.743Z,9.80
2022-10-05T02:48:22.715Z,8.50
2022-10-05T02:49:22.705Z,7.10
2022-10-05T02:50:22.689Z,10.70
2022-10-05T02:51:22.698Z,6.30
2022-10-05T02:52:22.684Z,6.90
2022-10-05T02:53:22.688Z,6.80
2022-10-05T02:54:22.650Z,9.00
2022-10-05T02:55:22.640Z,10.00
2022-10-05T02:56:22.640Z,9.00
2022-10-05T02:57:22.661Z,10.60
2022-10-05T02:58:22.609Z,25.60
2022-10-05T02:59:22.592Z,15.10
2022-10-05T03:00:22.601Z,10.60
2022-10-05T03:01:22.666Z,7.90
2022-10-05T03:02:22.685Z,9.00
2022-10-05T03:03:22.561Z,8.70
2022-10-05T03:04:22.553Z,9.30
2022-10-05T03:05:22.543Z,15.50
2022-10-05T03:06:22.536Z,136.70
2022-10-05T03:07:22.536Z,29.10
2022-10-05T03:08:22.517Z,113.00
2022-10-05T03:09:22.527Z,27.60
2022-10-05T03:10:22.489Z,78.00
2022-10-05T03:11:22.491Z,45.50
2022-10-05T03:12:22.492Z,23.40
2022-10-05T03:13:22.456Z,31.90
2022-10-05T03:14:22.451Z,126.80
2022-10-05T03:15:22.471Z,257.50
2022-10-05T03:16:22.481Z,134.60
2022-10-05T03:17:22.408Z,137.50
2022-10-05T03:18:26.285Z,145.00
2022-10-05T03:19:23.401Z,171.40
2022-10-05T03:20:22.404Z,189.30
2022-10-05T03:21:22.379Z,136.20
2022-10-05T03:22:22.365Z,89.20
2022-10-05T03:23:22.356Z,64.00
2022-10-05T03:24:22.350Z,93.30
2022-10-05T03:25:22.341Z,76.20
2022-10-05T03:26:22.337Z,166.50
2022-10-05T03:27:22.318Z,226.00
2022-10-05T03:28:22.343Z,170.90
2022-10-05T03:29:22.300Z,168.30
2022-10-05T03:30:22.283Z,244.40
2022-10-05T03:31:22.338Z,116.90
2022-10-05T03:32:22.263Z,87.00
2022-10-05T03:33:22.255Z,142.50
2022-10-05T03:34:22.239Z,153.10
2022-10-05T03:35:22.263Z,335.30
2022-10-05T03:36:22.213Z,51.50
2022-10-05T03:37:22.218Z,41.30
2022-10-05T03:38:22.208Z,93.90
2022-10-05T03:39:22.195Z,53.70
2022-10-05T03:40:22.200Z,171.20
2022-10-05T03:41:22.176Z,125.30
2022-10-05T03:42:22.163Z,151.30
2022-10-05T03:43:22.157Z,56.40
2022-10-05T03:44:22.149Z,32.00
2022-10-05T03:45:22.130Z,51.40
2022-10-05T03:46:22.194Z,54.30
2022-10-05T03:47:22.109Z,43.50
2022-10-05T03:48:22.116Z,42.40
2022-10-05T03:49:22.088Z,31.90
2022-10-05T03:50:22.101Z,35.00
2022-10-05T03:51:22.069Z,48.00
2022-10-05T03:52:22.076Z,33.80
2022-10-05T03:53:22.056Z,16.00
2022-10-05T03:54:22.040Z,11.10
2022-10-05T03:55:22.038Z,11.50
2022-10-05T03:56:22.022Z,11.70
2022-10-05T03:57:22.043Z,7.20
2022-10-05T03:58:21.993Z,11.00
2022-10-05T03:59:21.984Z,10.70
2022-10-05T04:00:21.979Z,18.60
2022-10-05T04:01:22.035Z,13.90
2022-10-05T04:02:22.011Z,9.20
2022-10-05T04:03:21.949Z,10.80
2022-10-05T04:04:21.937Z,18.20
2022-10-05T04:05:21.948Z,10.80
2022-10-05T04:06:21.911Z,8.90
2022-10-05T04:07:21.905Z,8.20
2022-10-05T04:08:21.891Z,6.90
2022-10-05T04:09:21.883Z,6.70
2022-10-05T04:10:21.893Z,6.60
2022-10-05T04:11:21.874Z,6.50
2022-10-05T04:12:21.915Z,6.30
2022-10-05T04:13:21.843Z,7.00
2022-10-05T04:14:21.825Z,6.10
2022-10-05T04:15:21.819Z,6.10
2022-10-05T04:16:21.860Z,8.90
2022-10-05T04:17:21.820Z,5.60
2022-10-05T04:18:21.789Z,6.50
2022-10-05T04:19:21.777Z,7.00
2022-10-05T04:20:21.782Z,9.20
2022-10-05T04:21:23.941Z,5.90
2022-10-05T04:22:22.752Z,6.60
2022-10-05T04:23:21.744Z,5.90
2022-10-05T04:24:21.724Z,5.50
2022-10-05T04:25:21.722Z,7.40
2022-10-05T04:26:21.720Z,8.70
2022-10-05T04:27:21.701Z,6.70
2022-10-05T04:28:21.728Z,6.90
2022-10-05T04:29:21.676Z,6.50
2022-10-05T04:30:21.671Z,6.60
2022-10-05T04:31:21.702Z,8.10
2022-10-05T04:32:21.635Z,11.30
2022-10-05T04:33:21.643Z,19.70
2022-10-05T04:34:21.643Z,15.80
2022-10-05T04:35:21.613Z,28.50
2022-10-05T04:36:21.645Z,33.20
2022-10-05T04:37:21.608Z,46.30
2022-10-05T04:38:21.585Z,16.20
2022-10-05T04:39:21.581Z,60.90
2022-10-05T04:40:21.568Z,228.20
2022-10-05T04:41:21.576Z,12.30
2022-10-05T04:42:21.545Z,54.10
2022-10-05T04:43:21.540Z,11.40
2022-10-05T04:44:21.531Z,18.00
2022-10-05T04:45:21.521Z,11.10
2022-10-05T04:46:21.569Z,17.50
2022-10-05T04:47:21.511Z,41.60
2022-10-05T04:48:21.504Z,175.10
2022-10-05T04:49:21.464Z,97.30
2022-10-05T04:50:21.477Z,26.80
2022-10-05T04:51:21.468Z,30.40
2022-10-05T04:52:21.448Z,65.70
2022-10-05T04:53:21.457Z,25.30
2022-10-05T04:54:21.443Z,11.80
2022-10-05T04:55:21.414Z,34.90
2022-10-05T04:56:21.412Z,13.20
2022-10-05T04:57:21.399Z,12.70
2022-10-05T04:58:21.412Z,10.60
2022-10-05T04:59:21.403Z,7.80
2022-10-05T05:00:21.371Z,8.30
2022-10-05T05:01:21.396Z,7.10
2022-10-05T05:02:21.374Z,8.80
2022-10-05T05:03:21.382Z,9.20
2022-10-05T05:04:21.332Z,7.70
2022-10-05T05:05:21.327Z,7.30
2022-10-05T05:06:21.313Z,17.70
2022-10-05T05:07:21.328Z,8.30
2022-10-05T05:08:21.286Z,8.40
2022-10-05T05:09:21.284Z,10.40
2022-10-05T05:10:21.268Z,7.20
2022-10-05T05:11:24.529Z,4.80
2022-10-05T05:12:22.313Z,6.10
2022-10-05T05:13:21.243Z,5.50
2022-10-05T05:14:21.243Z,4.70
2022-10-05T05:15:21.268Z,5.50
2022-10-05T05:16:21.304Z,6.40
2022-10-05T05:17:21.200Z,6.90
2022-10-05T05:18:21.217Z,5.60
2022-10-05T05:19:21.192Z,4.80
2022-10-05T05:20:21.176Z,6.80
2022-10-05T05:21:21.159Z,5.70
2022-10-05T05:22:21.141Z,4.40
2022-10-05T05:23:21.154Z,5.30
2022-10-05T05:24:21.131Z,4.70
2022-10-05T05:25:21.117Z,6.20
2022-10-05T05:26:21.117Z,4.90
2022-10-05T05:27:21.091Z,5.30
2022-10-05T05:28:21.160Z,5.40
2022-10-05T05:29:21.081Z,5.80
2022-10-05T05:30:21.065Z,5.70
2022-10-05T05:31:21.315Z,4.80
2022-10-05T05:32:21.051Z,6.40
2022-10-05T05:33:21.059Z,5.90
2022-10-05T05:34:21.043Z,7.00
2022-10-05T05:35:21.023Z,8.40
2022-10-05T05:36:23.432Z,5.50
2022-10-05T05:37:21.990Z,5.40
2022-10-05T05:38:21.036Z,6.50
2022-10-05T05:39:20.974Z,6.50
2022-10-05T05:40:20.967Z,5.40
2022-10-05T05:41:20.948Z,6.90
2022-10-05T05:42:20.952Z,6.20
2022-10-05T05:43:20.936Z,5.80
2022-10-05T05:44:20.941Z,8.50
2022-10-05T05:45:20.922Z,7.20
2022-10-05T05:46:21.511Z,6.80
2022-10-05T05:47:20.967Z,7.00
2022-10-05T05:48:20.897Z,7.00
2022-10-05T05:49:20.894Z,7.40
2022-10-05T05:50:20.864Z,7.30
2022-10-05T05:51:20.872Z,6.40
2022-10-05T05:52:20.852Z,5.70
2022-10-05T05:53:20.871Z,6.40
2022-10-05T05:54:20.826Z,7.10
2022-10-05T05:55:20.875Z,11.20
2022-10-05T05:56:20.839Z,11.40
2022-10-05T05:57:20.803Z,14.50
2022-10-05T05:58:20.787Z,14.30
2022-10-05T05:59:20.776Z,16.20
2022-10-05T06:00:20.765Z,14.70
2022-10-05T06:01:32.734Z,10.10
2022-10-05T06:02:21.849Z,10.50
2022-10-05T06:03:20.872Z,12.30
2022-10-05T06:04:20.727Z,9.90
2022-10-05T06:05:20.712Z,9.10
2022-10-05T06:06:20.707Z,11.10
2022-10-05T06:07:20.721Z,8.60
2022-10-05T06:08:20.692Z,11.30
2022-10-05T06:09:20.676Z,8.30
2022-10-05T06:10:20.670Z,8.60
2022-10-05T06:11:20.676Z,8.20
2022-10-05T06:12:20.644Z,8.30
2022-10-05T06:13:20.631Z,9.00
2022-10-05T06:14:20.612Z,11.70
2022-10-05T06:15:20.612Z,10.30
2022-10-05T06:16:20.675Z,8.10
2022-10-05T06:17:20.593Z,7.30
2022-10-05T06:18:20.589Z,6.40
2022-10-05T06:19:20.591Z,10.30
2022-10-05T06:20:20.557Z,21.00
2022-10-05T06:21:20.575Z,44.50
2022-10-05T06:22:20.562Z,65.20
2022-10-05T06:23:20.533Z,20.70
2022-10-05T06:24:20.541Z,9.00
2022-10-05T06:25:20.515Z,7.50
2022-10-05T06:26:20.504Z,10.80
2022-10-05T06:27:20.493Z,7.00
2022-10-05T06:28:20.536Z,6.50
2022-10-05T06:29:21.503Z,6.40
2022-10-05T06:30:20.468Z,5.70
2022-10-05T06:31:20.514Z,6.10
2022-10-05T06:32:20.462Z,7.80
2022-10-05T06:33:20.445Z,5.30
2022-10-05T06:34:20.467Z,46.30
2022-10-05T06:35:20.425Z,16.00
2022-10-05T06:36:20.418Z,34.60
2022-10-05T06:37:20.398Z,33.70
2022-10-05T06:38:20.392Z,6.80
2022-10-05T06:39:20.388Z,6.70
2022-10-05T06:40:20.412Z,12.90
2022-10-05T06:41:20.367Z,7.90
2022-10-05T06:42:20.356Z,7.40
2022-10-05T06:43:20.338Z,6.00
2022-10-05T06:44:20.333Z,5.10
2022-10-05T06:45:20.353Z,5.50
2022-10-05T06:46:20.375Z,5.60
2022-10-05T06:47:20.327Z,5.20
2022-10-05T06:48:20.295Z,6.10
2022-10-05T06:49:20.286Z,6.00
2022-10-05T06:50:20.272Z,4.80
2022-10-05T06:51:20.272Z,5.90
2022-10-05T06:52:20.241Z,6.00
2022-10-05T06:53:20.235Z,5.80
2022-10-05T06:54:20.233Z,6.60
2022-10-05T06:55:20.247Z,6.50
2022-10-05T06:56:20.209Z,7.00
2022-10-05T06:57:20.198Z,7.40
2022-10-05T06:58:20.191Z,6.70
2022-10-05T06:59:20.200Z,7.90
2022-10-05T07:00:20.181Z,6.20
2022-10-05T07:01:20.220Z,6.80
2022-10-05T07:02:20.201Z,9.50
2022-10-05T07:03:20.133Z,8.00
2022-10-05T07:04:20.152Z,7.90
2022-10-05T07:05:20.130Z,9.80
2022-10-05T07:06:20.117Z,7.90
2022-10-05T07:07:20.155Z,7.00
2022-10-05T07:08:20.095Z,7.20
2022-10-05T07:09:20.076Z,6.90
2022-10-05T07:10:20.075Z,6.10
2022-10-05T07:11:20.059Z,7.00
2022-10-05T07:12:20.084Z,8.00
2022-10-05T07:13:20.066Z,10.50
2022-10-05T07:14:20.052Z,8.30
2022-10-05T07:15:20.025Z,8.10
2022-10-05T07:16:20.063Z,9.80
2022-10-05T07:17:20.003Z,8.70
2022-10-05T07:18:20.046Z,9.60
2022-10-05T07:19:19.971Z,8.00
2022-10-05T07:20:19.964Z,9.60
2022-10-05T07:21:19.964Z,7.10
2022-10-05T07:22:19.956Z,8.60
2022-10-05T07:23:19.955Z,8.90
2022-10-05T07:24:19.941Z,9.50
2022-10-05T07:25:19.923Z,8.50
2022-10-05T07:26:19.900Z,8.00
2022-10-05T07:27:19.897Z,8.10
2022-10-05T07:28:19.943Z,8.10
2022-10-05T07:29:19.892Z,6.80
2022-10-05T07:30:19.872Z,7.40
2022-10-05T07:31:19.910Z,8.20
2022-10-05T07:32:19.852Z,7.50
2022-10-05T07:33:19.855Z,8.00
2022-10-05T07:34:19.847Z,7.70
2022-10-05T07:35:19.824Z,8.60
2022-10-05T07:36:19.830Z,10.40
2022-10-05T07:37:19.810Z,6.80
2022-10-05T07:38:19.854Z,6.70
2022-10-05T07:39:20.269Z,7.00
2022-10-05T07:40:19.783Z,7.50
2022-10-05T07:41:19.791Z,7.80
2022-10-05T07:42:19.755Z,6.20
2022-10-05T07:43:19.738Z,7.60
2022-10-05T07:44:19.733Z,7.90
2022-10-05T07:45:19.720Z,7.90
2022-10-05T07:46:19.782Z,8.90
2022-10-05T07:47:19.704Z,8.40
2022-10-05T07:48:19.724Z,9.70
2022-10-05T07:49:19.688Z,9.50
2022-10-05T07:50:19.679Z,8.80
2022-10-05T07:51:19.657Z,8.80
2022-10-05T07:52:19.635Z,11.00
2022-10-05T07:53:20.656Z,8.90
2022-10-05T07:54:19.632Z,9.90
2022-10-05T07:55:19.616Z,10.10
2022-10-05T07:56:19.616Z,9.60
2022-10-05T07:57:19.588Z,10.20
2022-10-05T07:58:19.602Z,10.70
2022-10-05T07:59:19.588Z,10.40
2022-10-05T08:00:19.563Z,10.40
2022-10-05T08:01:19.547Z,11.80
2022-10-05T08:02:19.686Z,12.90
2022-10-05T08:03:19.625Z,10.50
2022-10-05T08:04:19.521Z,12.50
2022-10-05T08:05:19.509Z,11.70
2022-10-05T08:06:19.491Z,12.60
2022-10-05T08:07:19.568Z,11.50
2022-10-05T08:08:20.427Z,11.40
2022-10-05T08:09:19.469Z,11.20
2022-10-05T08:10:19.482Z,14.10
2022-10-05T08:11:19.432Z,11.80
2022-10-05T08:12:19.438Z,12.10
2022-10-05T08:13:19.426Z,14.10
2022-10-05T08:14:19.431Z,10.90
2022-10-05T08:15:19.403Z,13.10
2022-10-05T08:16:19.458Z,12.70
2022-10-05T08:17:24.001Z,11.70
2022-10-05T08:18:20.378Z,11.00
2022-10-05T08:19:19.371Z,12.70
2022-10-05T08:20:19.373Z,13.50
2022-10-05T08:21:19.341Z,12.20
2022-10-05T08:22:19.331Z,12.40
2022-10-05T08:23:51.330Z,12.30
2022-10-05T08:24:19.323Z,11.70
2022-10-05T08:25:19.299Z,12.40
2022-10-05T08:26:19.299Z,13.00
2022-10-05T08:27:19.281Z,13.50
2022-10-05T08:28:19.367Z,12.90
2022-10-05T08:29:19.274Z,12.30
2022-10-05T08:30:19.270Z,12.50
2022-10-05T08:31:19.282Z,12.40
2022-10-05T08:32:19.245Z,11.80
2022-10-05T08:33:19.249Z,11.90
2022-10-05T08:34:19.243Z,12.00
2022-10-05T08:35:19.199Z,13.00
2022-10-05T08:36:19.209Z,12.00
2022-10-05T08:37:19.182Z,12.10
2022-10-05T08:38:19.178Z,12.30
2022-10-05T08:39:19.182Z,11.50
2022-10-05T08:40:19.156Z,11.20
2022-10-05T08:41:19.146Z,12.10
2022-10-05T08:42:19.130Z,13.30
2022-10-05T08:43:19.132Z,13.60
2022-10-05T08:44:19.127Z,12.60
2022-10-05T08:45:19.097Z,12.50
2022-10-05T08:46:19.129Z,12.10
2022-10-05T08:47:19.103Z,12.70
2022-10-05T08:48:19.080Z,13.60
2022-10-05T08:49:19.053Z,12.10
2022-10-05T08:50:19.135Z,12.10
2022-10-05T08:51:19.039Z,11.80
2022-10-05T08:52:19.056Z,13.80
2022-10-05T08:53:19.017Z,12.80
2022-10-05T08:54:19.007Z,13.90
2022-10-05T08:55:19.007Z,13.20
2022-10-05T08:56:20.899Z,13.10
2022-10-05T08:57:20.003Z,13.00
2022-10-05T08:58:18.971Z,14.50
2022-10-05T08:59:18.958Z,12.50
2022-10-05T09:00:19.034Z,12.90
2022-10-05T09:01:18.996Z,12.80
2022-10-05T09:02:18.973Z,12.70
2022-10-05T09:03:18.952Z,13.40
2022-10-05T09:04:18.914Z,12.40
2022-10-05T09:05:18.911Z,12.60
2022-10-05T09:06:18.896Z,12.10
2022-10-05T09:07:18.879Z,12.70
2022-10-05T09:08:18.892Z,10.90
2022-10-05T09:09:18.875Z,12.20
2022-10-05T09:10:18.971Z,10.20
2022-10-05T09:11:18.840Z,10.00
2022-10-05T09:12:18.826Z,11.00
2022-10-05T09:13:18.816Z,9.30
2022-10-05T09:14:18.801Z,10.40
2022-10-05T09:15:25.779Z,9.40
2022-10-05T09:16:19.855Z,10.80
2022-10-05T09:17:18.788Z,9.30
2022-10-05T09:18:18.777Z,9.70
2022-10-05T09:19:18.756Z,11.50
2022-10-05T09:20:18.776Z,9.40
2022-10-05T09:21:18.763Z,9.60
2022-10-05T09:22:18.733Z,11.00
2022-10-05T09:23:18.713Z,9.60
2022-10-05T09:24:18.703Z,9.10
2022-10-05T09:25:18.690Z,8.70
2022-10-05T09:26:18.746Z,9.30
2022-10-05T09:27:18.685Z,10.00
2022-10-05T09:28:18.714Z,7.80
2022-10-05T09:29:18.655Z,8.00
2022-10-05T09:30:18.728Z,7.60
2022-10-05T09:31:18.730Z,7.90
2022-10-05T09:32:18.627Z,8.00
2022-10-05T09:33:18.614Z,7.00
2022-10-05T09:34:18.608Z,7.20
2022-10-05T09:35:18.627Z,7.10
2022-10-05T09:36:18.581Z,8.50
2022-10-05T09:37:18.590Z,7.10
2022-10-05T09:38:18.555Z,7.00
2022-10-05T09:39:18.559Z,6.20
2022-10-05T09:40:18.571Z,7.60
2022-10-05T09:41:18.528Z,6.60
2022-10-05T09:42:18.540Z,8.20
2022-10-05T09:43:18.515Z,6.30
2022-10-05T09:44:18.501Z,6.50
2022-10-05T09:45:21.371Z,7.60
2022-10-05T09:46:19.547Z,6.50
2022-10-05T09:47:18.485Z,5.70
2022-10-05T09:48:18.485Z,5.80
2022-10-05T09:49:18.461Z,6.10
2022-10-05T09:50:18.580Z,6.50
2022-10-05T09:51:18.434Z,6.40
2022-10-05T09:52:19.219Z,6.00
2022-10-05T09:53:19.413Z,5.80
2022-10-05T09:54:18.414Z,5.80
2022-10-05T09:55:18.423Z,5.80
2022-10-05T09:56:18.440Z,5.20
2022-10-05T09:57:18.379Z,5.10
2022-10-05T09:58:18.362Z,4.50
2022-10-05T09:59:18.359Z,4.70
2022-10-05T10:00:18.400Z,4.90
2022-10-05T10:01:32.478Z,4.60
2022-10-05T10:02:19.453Z,4.50
2022-10-05T10:03:18.418Z,4.20
2022-10-05T10:04:18.307Z,4.60
2022-10-05T10:05:18.285Z,4.20
2022-10-05T10:06:18.315Z,4.10
2022-10-05T10:07:18.269Z,4.70
2022-10-05T10:08:18.321Z,4.30
2022-10-05T10:09:18.260Z,4.70
2022-10-05T10:10:18.251Z,6.90
2022-10-05T10:11:18.225Z,4.00
2022-10-05T10:12:18.241Z,3.60
2022-10-05T10:13:18.227Z,3.50
2022-10-05T10:14:18.207Z,4.10
2022-10-05T10:15:18.177Z,3.80
2022-10-05T10:16:18.225Z,4.10
2022-10-05T10:17:18.182Z,4.00
2022-10-05T10:18:18.160Z,4.10
2022-10-05T10:19:18.145Z,4.40
2022-10-05T10:20:18.259Z,4.20
2022-10-05T10:21:18.139Z,3.60
2022-10-05T10:22:18.121Z,3.10
2022-10-05T10:23:18.132Z,3.60
2022-10-05T10:24:18.112Z,3.60
2022-10-05T10:25:18.092Z,4.30
2022-10-05T10:26:18.093Z,3.90
2022-10-05T10:27:18.084Z,4.50
2022-10-05T10:28:18.137Z,3.40
2022-10-05T10:29:19.082Z,4.00
2022-10-05T10:30:18.041Z,3.80
2022-10-05T10:31:18.114Z,3.50
2022-10-05T10:32:18.020Z,5.00
2022-10-05T10:33:18.032Z,3.90
2022-10-05T10:34:18.000Z,4.10
2022-10-05T10:35:18.083Z,4.20
2022-10-05T10:36:17.987Z,4.80
2022-10-05T10:37:17.991Z,3.60
2022-10-05T10:38:17.971Z,3.60
2022-10-05T10:39:17.948Z,3.60
2022-10-05T10:40:17.939Z,4.00
2022-10-05T10:41:17.942Z,3.60
2022-10-05T10:42:20.467Z,4.20
2022-10-05T10:43:17.904Z,2.90
2022-10-05T10:44:17.902Z,3.40
2022-10-05T10:45:17.898Z,3.10
2022-10-05T10:46:17.957Z,3.20
2022-10-05T10:47:17.896Z,3.00
2022-10-05T10:48:17.857Z,3.30
2022-10-05T10:49:17.875Z,3.50
2022-10-05T10:50:17.861Z,3.00
2022-10-05T10:51:17.887Z,3.00
2022-10-05T10:52:17.822Z,3.60
2022-10-05T10:53:17.843Z,4.30
2022-10-05T10:54:17.808Z,3.80
2022-10-05T10:55:17.802Z,3.10
2022-10-05T10:56:17.776Z,2.40
2022-10-05T10:57:17.770Z,2.00
2022-10-05T10:58:17.821Z,2.50
2022-10-05T10:59:17.749Z,2.70
2022-10-05T11:00:17.732Z,2.90
2022-10-05T11:01:17.784Z,2.20
2022-10-05T11:02:17.784Z,2.70
2022-10-05T11:03:17.790Z,2.30
2022-10-05T11:04:17.716Z,1.90
2022-10-05T11:05:17.689Z,3.00
2022-10-05T11:06:17.678Z,2.00
2022-10-05T11:07:17.677Z,2.30
2022-10-05T11:08:17.662Z,2.00
2022-10-05T11:09:17.657Z,2.20
2022-10-05T11:10:17.643Z,1.70
2022-10-05T11:11:17.629Z,1.90
2022-10-05T11:12:17.617Z,2.10
2022-10-05T11:13:17.626Z,2.40
2022-10-05T11:14:17.583Z,2.70
2022-10-05T11:15:17.581Z,2.70
2022-10-05T11:16:19.565Z,3.40
2022-10-05T11:17:17.579Z,3.30
2022-10-05T11:18:17.605Z,2.20
2022-10-05T11:19:17.543Z,1.90
2022-10-05T11:20:17.539Z,3.10
2022-10-05T11:21:17.531Z,3.60
2022-10-05T11:22:17.531Z,2.30
2022-10-05T11:23:17.604Z,3.70
2022-10-05T11:24:17.534Z,3.30
2022-10-05T11:25:17.487Z,1.60
2022-10-05T11:26:17.482Z,2.00
2022-10-05T11:27:17.495Z,1.90
2022-10-05T11:28:17.493Z,3.50
2022-10-05T11:29:17.464Z,1.80
2022-10-05T11:30:17.457Z,1.80
2022-10-05T11:31:17.473Z,4.30
2022-10-05T11:32:17.431Z,3.50
2022-10-05T11:33:17.481Z,1.60
2022-10-05T11:34:17.409Z,2.60
2022-10-05T11:35:17.406Z,1.60
2022-10-05T11:36:17.382Z,1.50
2022-10-05T11:37:17.383Z,1.60
2022-10-05T11:38:17.381Z,3.80
2022-10-05T11:39:17.370Z,1.70
2022-10-05T11:40:17.344Z,1.40
2022-10-05T11:41:17.355Z,1.40
2022-10-05T11:42:17.329Z,2.90
2022-10-05T11:43:17.315Z,1.40
2022-10-05T11:44:17.309Z,1.90
2022-10-05T11:45:17.302Z,2.00
2022-10-05T11:46:17.335Z,1.80
2022-10-05T11:47:17.285Z,1.40
2022-10-05T11:48:17.265Z,2.10
2022-10-05T11:49:17.267Z,1.90
2022-10-05T11:50:17.237Z,1.90
2022-10-05T11:51:17.239Z,1.50
2022-10-05T11:52:17.236Z,1.50
2022-10-05T11:53:18.211Z,1.70
2022-10-05T11:54:17.223Z,1.90
2022-10-05T11:55:17.189Z,1.90
2022-10-05T11:56:18.207Z,1.90
2022-10-05T11:57:17.170Z,1.90
2022-10-05T11:58:17.164Z,1.30
2022-10-05T11:59:17.173Z,1.70
2022-10-05T12:00:17.130Z,2.80
2022-10-05T12:01:17.119Z,2.10
2022-10-05T12:02:17.136Z,1.40
2022-10-05T12:03:17.237Z,1.50
2022-10-05T12:04:17.163Z,1.00
2022-10-05T12:05:17.080Z,2.60
2022-10-05T12:06:17.073Z,1.60
2022-10-05T12:07:17.096Z,1.50
2022-10-05T12:08:17.059Z,1.50
2022-10-05T12:09:17.060Z,1.50
2022-10-05T12:10:17.047Z,1.70
2022-10-05T12:11:17.046Z,1.40
2022-10-05T12:12:17.035Z,1.50
2022-10-05T12:13:17.007Z,1.30
2022-10-05T12:14:17.005Z,1.80
2022-10-05T12:15:16.985Z,1.40
2022-10-05T12:16:16.987Z,3.70
2022-10-05T12:17:16.976Z,1.30
2022-10-05T12:18:16.973Z,1.80
2022-10-05T12:19:16.932Z,3.10
2022-10-05T12:20:16.928Z,2.40
2022-10-05T12:21:16.926Z,1.50
2022-10-05T12:22:16.910Z,1.20
2022-10-05T12:23:16.914Z,1.30
2022-10-05T12:24:16.890Z,1.70
2022-10-05T12:25:16.883Z,1.30
2022-10-05T12:26:16.877Z,1.70
2022-10-05T12:27:16.860Z,1.40
2022-10-05T12:28:16.901Z,1.20
2022-10-05T12:29:16.857Z,1.00
2022-10-05T12:30:16.830Z,1.70
2022-10-05T12:31:16.847Z,1.10
2022-10-05T12:32:16.808Z,1.70
2022-10-05T12:33:17.842Z,1.50
2022-10-05T12:34:16.795Z,2.00
2022-10-05T12:35:29.978Z,1.50
2022-10-05T12:36:18.776Z,2.40
2022-10-05T12:37:16.763Z,1.70
2022-10-05T12:38:16.760Z,1.60
2022-10-05T12:39:16.739Z,1.60
2022-10-05T12:40:16.733Z,2.50
2022-10-05T12:41:16.777Z,2.30
2022-10-05T12:42:16.719Z,3.30
2022-10-05T12:43:16.741Z,1.50
2022-10-05T12:44:16.693Z,1.90
2022-10-05T12:45:16.692Z,2.20
2022-10-05T12:46:16.712Z,1.50
2022-10-05T12:47:16.660Z,2.00
2022-10-05T12:48:16.650Z,1.80
2022-10-05T12:49:16.640Z,2.00
2022-10-05T12:50:16.679Z,1.70
2022-10-05T12:51:16.636Z,2.60
2022-10-05T12:52:16.611Z,2.50
2022-10-05T12:53:16.604Z,1.60
2022-10-05T12:54:16.622Z,3.90
2022-10-05T12:55:16.592Z,1.90
2022-10-05T12:56:16.582Z,1.60
2022-10-05T12:57:16.579Z,2.20
2022-10-05T12:58:16.564Z,1.50
2022-10-05T12:59:16.567Z,1.80
2022-10-05T13:00:21.725Z,1.40
2022-10-05T13:01:18.586Z,1.70
2022-10-05T13:02:16.568Z,1.60
2022-10-05T13:03:16.506Z,2.50
2022-10-05T13:04:16.493Z,2.10
2022-10-05T13:05:16.549Z,1.90
2022-10-05T13:06:16.491Z,1.50
2022-10-05T13:07:16.497Z,2.60
2022-10-05T13:08:16.463Z,2.40
2022-10-05T13:09:16.446Z,1.90